Brownsville, TX (78520)

2:43 PM CDT on August 24, 2016 (GMT -0500)
RGV | | Change Station

Elev 26 ft 25.99 °N, 97.47 °W | Updated 21 seconds ago

Partly Cloudy
Partly Cloudy
94.5 °F
Feels Like 107 °F
N
2.0
Wind Variable Wind from SE
Gusts 4.0 mph

Today
High -- | Low -- °F
--% Chance of Precip.
Yesterday
High -- | Low -- °F
Precip. -- in
Pressure 30.07 in
Visibility 10.0 miles
Clouds Few 4300 ft
Heat Index 107 °F
Dew Point 75 °F
Humidity 54%
Rainfall 0.00 in
Snow Depth Not available.
7:07 AM 7:57 PM
Waning Gibbous, 54% visible
METAR KBRO 241853Z 17015G26KT 10SM FEW043 35/22 A3007 RMK AO2 PK WND 16026/1850 SLP181 T03500222
Pressure 30.07 in
Visibility 10.0 miles
Clouds Few 4300 ft
Heat Index 107 °F
Dew Point 75 °F
Humidity 54%
Rainfall 0.00 in
Snow Depth Not available.
7:07 AM 7:57 PM
Waning Gibbous, 54% visible
METAR KBRO 241853Z 17015G26KT 10SM FEW043 35/22 A3007 RMK AO2 PK WND 16026/1850 SLP181 T03500222

10-Day Weather Forecast

Almanac

Astronomy

Aug. 24, 2016 Rise Set
Actual Time
Civil Twilight
Nautical Twilight
Astronomical Twilight
Moon
Length of Visible Light
Length of Day
Tomorrow will be .
, % of the Moon is Illuminated

Today's Extremes

State Highs State Lows

Community

WunderPhotos

Upload Photos

1,934,690 photos uploaded!

WunderBlog® & News

Nearby

Air Quality

  Air Quality AQ Index Pollutant
Not available.

Snow Depth

Station Depth Elevation

Earthquake Activity

City Distance Mag. Time & Date
Minimum magnitude displayed is 2.5.

Coastal Water Temperatures

Place Temperature

Stations

Nearby Weather Stations

Station Location Temp. Windchill Dew Point Humidity Wind Precip. Elev Updated Type
                   

Watches & Warnings

There are currently no watches in effect.